Time;durP1;ratioP1;P1;durP2;ratioP2;P2;SDS_P1;SDS_P2;PMS_P1;PMS_P2;Temp;Humidity;BMP_temperature;BMP_pressure;BME280_temperature;BME280_humidity;BME280_pressure;Samples;Min_cycle;Max_cycle;Signal;HPM_P1;HPM_P2
2023/04/26 00:01:13;;;;;;;2.60;1.30;;;;;;;-143.29;100.00;62188.47;4897290;29;20243;-82
2023/04/26 00:03:39;;;;;;;3.83;1.48;;;;;;;-143.29;100.00;62188.47;4897360;29;20029;-82
2023/04/26 00:06:07;;;;;;;4.05;1.63;;;;;;;-143.29;100.00;62188.47;4895323;29;20047;-83
2023/04/26 00:08:33;;;;;;;4.70;1.48;;;;;;;-143.29;100.00;62188.47;4895433;29;20029;-82
2023/04/26 00:10:58;;;;;;;4.57;1.35;;;;;;;-143.29;100.00;62188.47;4897267;29;20031;-82
2023/04/26 00:13:24;;;;;;;3.67;1.58;;;;;;;-143.29;100.00;62188.47;4896676;29;20086;-82
2023/04/26 00:15:50;;;;;;;4.40;1.13;;;;;;;-143.29;100.00;62188.47;4896510;29;20044;-82
2023/04/26 00:18:16;;;;;;;3.88;1.40;;;;;;;-143.29;100.00;62188.47;4897132;29;20084;-83
2023/04/26 00:20:41;;;;;;;2.97;0.90;;;;;;;-143.29;100.00;62188.47;4897097;29;20506;-82
2023/04/26 00:23:09;;;;;;;7.00;1.85;;;;;;;-143.29;100.00;62188.47;4896967;29;20108;-82
2023/04/26 00:25:35;;;;;;;3.47;1.35;;;;;;;-143.29;100.00;62188.47;4894969;29;20396;-83
2023/04/26 00:28:00;;;;;;;2.33;0.90;;;;;;;-143.29;100.00;62188.47;4895708;29;20020;-83
2023/04/26 00:30:26;;;;;;;1.20;0.63;;;;;;;-143.29;100.00;62188.47;4897072;29;20029;-82
2023/04/26 00:32:51;;;;;;;5.18;1.33;;;;;;;-143.29;100.00;62188.47;4897515;29;20033;-82
2023/04/26 00:35:17;;;;;;;5.75;1.70;;;;;;;-143.29;100.00;62188.47;4896149;29;20025;-82
2023/04/26 00:37:42;;;;;;;2.53;1.35;;;;;;;-143.29;100.00;62188.47;4896836;29;20024;-83
2023/04/26 00:40:08;;;;;;;2.63;1.15;;;;;;;-143.29;100.00;62188.47;4896897;29;20365;-83
2023/04/26 00:42:33;;;;;;;3.92;1.25;;;;;;;-143.29;100.00;62188.47;4896759;29;20021;-83
2023/04/26 00:44:59;;;;;;;6.57;1.38;;;;;;;-143.29;100.00;62188.47;4895918;29;20036;-83
2023/04/26 00:47:24;;;;;;;3.80;1.50;;;;;;;-143.29;100.00;62188.47;4896144;29;20083;-83
2023/04/26 00:49:51;;;;;;;6.22;1.23;;;;;;;-143.29;100.00;62188.47;4896961;29;20048;-83
2023/04/26 00:52:16;;;;;;;3.42;1.17;;;;;;;-143.29;100.00;62188.47;4896963;29;20021;-83
2023/04/26 00:54:42;;;;;;;3.08;1.38;;;;;;;-143.29;100.00;62188.47;4896769;29;20025;-83
2023/04/26 00:57:08;;;;;;;3.60;1.50;;;;;;;-143.29;100.00;62188.47;4895588;29;20040;-83
2023/04/26 00:59:35;;;;;;;2.75;1.00;;;;;;;-143.29;100.00;62188.47;4896536;29;20047;-83
2023/04/26 01:02:02;;;;;;;3.75;1.13;;;;;;;-143.29;100.00;62188.47;4896975;29;20031;-83
2023/04/26 01:04:29;;;;;;;5.60;1.10;;;;;;;-143.29;100.00;62188.47;4896904;29;20037;-83
2023/04/26 01:06:54;;;;;;;1.35;0.90;;;;;;;-143.29;100.00;62188.47;4895673;29;20044;-83
2023/04/26 01:09:20;;;;;;;4.72;1.70;;;;;;;-143.29;100.00;62188.47;4896467;29;20039;-83
2023/04/26 01:11:46;;;;;;;4.90;1.30;;;;;;;-143.29;100.00;62188.47;4896653;29;20084;-83
2023/04/26 01:14:13;;;;;;;3.35;1.50;;;;;;;-143.29;100.00;62188.47;4896523;29;20171;-83
2023/04/26 01:16:45;;;;;;;3.67;1.25;;;;;;;-143.29;100.00;62188.47;4895686;29;20107;-83
2023/04/26 01:19:11;;;;;;;4.13;1.13;;;;;;;-143.29;100.00;62188.47;4896192;29;20024;-83
2023/04/26 01:21:37;;;;;;;3.05;1.20;;;;;;;-143.29;100.00;62188.47;4896570;29;20115;-83
2023/04/26 01:24:03;;;;;;;4.20;1.25;;;;;;;-143.29;100.00;62188.47;4897385;29;20039;-83
2023/04/26 01:26:29;;;;;;;4.60;1.25;;;;;;;-143.29;100.00;62188.47;4899515;29;20040;-83
2023/04/26 01:28:54;;;;;;;3.47;1.50;;;;;;;-143.29;100.00;62188.47;4899532;29;20033;-83
2023/04/26 01:31:20;;;;;;;3.20;1.33;;;;;;;-143.29;100.00;62188.47;4900288;29;20476;-83
2023/04/26 01:33:45;;;;;;;3.97;1.10;;;;;;;-143.29;100.00;62188.47;4900449;29;20036;-83
2023/04/26 01:36:10;;;;;;;3.63;1.42;;;;;;;-143.29;100.00;62188.47;4899219;29;20029;-83
2023/04/26 01:38:36;;;;;;;2.45;1.05;;;;;;;-143.29;100.00;62188.47;4899869;29;20033;-83
2023/04/26 01:41:02;;;;;;;3.47;1.05;;;;;;;-143.29;100.00;62188.47;4900315;29;20033;-83
2023/04/26 01:43:27;;;;;;;3.00;1.17;;;;;;;-143.29;100.00;62188.47;4900007;29;20472;-83
2023/04/26 01:45:53;;;;;;;4.07;1.42;;;;;;;-143.29;100.00;62188.47;4898756;29;20152;-83
2023/04/26 01:48:18;;;;;;;2.35;0.80;;;;;;;-143.29;100.00;62188.47;4899912;29;20031;-83
2023/04/26 01:50:43;;;;;;;2.58;1.27;;;;;;;-143.29;100.00;62188.47;4899908;29;20035;-83
2023/04/26 01:53:09;;;;;;;3.20;1.17;;;;;;;-143.29;100.00;62188.47;4899615;29;20121;-83
2023/04/26 01:55:34;;;;;;;4.50;1.30;;;;;;;-143.29;100.00;62188.47;4898921;29;20021;-83
2023/04/26 01:58:00;;;;;;;2.35;1.10;;;;;;;-143.29;100.00;62188.47;4900049;29;20076;-83
2023/04/26 02:00:27;;;;;;;4.00;1.15;;;;;;;-143.29;100.00;62188.47;4899681;29;20505;-83
2023/04/26 02:02:56;;;;;;;2.30;0.93;;;;;;;-143.29;100.00;62188.47;4898380;29;20039;-83
2023/04/26 02:05:22;;;;;;;4.15;1.60;;;;;;;-143.29;100.00;62188.47;4898736;29;20060;-83
2023/04/26 02:07:47;;;;;;;6.43;1.27;;;;;;;-143.29;100.00;62188.47;4899227;29;20044;-83
2023/04/26 02:10:13;;;;;;;2.15;1.10;;;;;;;-143.29;100.00;62188.47;4899445;29;20479;-83
2023/04/26 02:12:38;;;;;;;4.78;1.23;;;;;;;-143.29;100.00;62188.47;4898069;29;20506;-83
2023/04/26 02:15:05;;;;;;;3.95;1.10;;;;;;;-143.29;100.00;62188.47;4899530;29;20055;-82
2023/04/26 02:17:30;;;;;;;7.53;1.33;;;;;;;-143.29;100.00;62188.47;4898193;29;20063;-83
2023/04/26 02:19:55;;;;;;;2.10;1.10;;;;;;;-143.29;100.00;62188.47;4899265;29;20060;-83
2023/04/26 02:22:23;;;;;;;2.80;1.05;;;;;;;-143.29;100.00;62188.47;4899132;29;20025;-83
2023/04/26 02:24:51;;;;;;;4.15;1.50;;;;;;;-143.29;100.00;62188.47;4898394;29;20108;-83
2023/04/26 02:27:16;;;;;;;3.13;1.30;;;;;;;-143.29;100.00;62188.47;4898974;29;20275;-83
2023/04/26 02:29:41;;;;;;;4.07;1.15;;;;;;;-143.29;100.00;62188.47;4899240;29;20477;-83
2023/04/26 02:32:07;;;;;;;2.47;1.05;;;;;;;-143.29;100.00;62188.47;4899107;29;20104;-83
2023/04/26 02:34:33;;;;;;;4.53;1.08;;;;;;;-143.29;100.00;62188.47;4899133;29;20138;-83
2023/04/26 02:36:58;;;;;;;3.20;1.08;;;;;;;-143.29;100.00;62188.47;4897319;29;20040;-83
2023/04/26 02:39:23;;;;;;;5.95;1.20;;;;;;;-143.29;100.00;62188.47;4898538;29;20028;-83
2023/04/26 02:41:49;;;;;;;4.88;1.10;;;;;;;-143.29;100.00;62188.47;4898945;29;20067;-83
2023/04/26 02:44:15;;;;;;;2.42;1.13;;;;;;;-143.29;100.00;62188.47;4899077;29;20031;-83
2023/04/26 02:46:41;;;;;;;3.85;0.90;;;;;;;-143.29;100.00;62188.47;4897744;29;20032;-83
2023/04/26 02:49:06;;;;;;;3.13;1.40;;;;;;;-143.29;100.00;62188.47;4898286;29;20119;-83
2023/04/26 02:51:32;;;;;;;2.53;1.20;;;;;;;-143.29;100.00;62188.47;4898789;29;20061;-83
2023/04/26 02:53:58;;;;;;;4.97;1.00;;;;;;;-143.29;100.00;62188.47;4898941;29;20036;-83
2023/04/26 02:56:23;;;;;;;2.95;1.58;;;;;;;-143.29;100.00;62188.47;4897706;29;20025;-83
2023/04/26 02:58:49;;;;;;;2.58;1.40;;;;;;;-143.29;100.00;62188.47;4898144;29;20040;-83
2023/04/26 03:01:14;;;;;;;3.38;1.10;;;;;;;-143.29;100.00;62188.47;4898717;29;20035;-83
2023/04/26 03:03:41;;;;;;;4.53;1.50;;;;;;;-143.29;100.00;62188.47;4898187;29;20056;-83
2023/04/26 03:06:06;;;;;;;3.45;1.38;;;;;;;-143.29;100.00;62188.47;4897808;29;20032;-83
2023/04/26 03:08:33;;;;;;;5.15;1.77;;;;;;;-143.29;100.00;62188.47;4898380;29;20116;-83
2023/04/26 03:10:59;;;;;;;4.72;1.45;;;;;;;-143.29;100.00;62188.47;4898389;29;20032;-83
2023/04/26 03:13:24;;;;;;;6.00;1.40;;;;;;;-143.29;100.00;62188.47;4898047;29;20081;-83
2023/04/26 03:15:51;;;;;;;3.22;1.00;;;;;;;-143.29;100.00;62188.47;4897452;29;20071;-84
2023/04/26 03:18:17;;;;;;;2.58;1.00;;;;;;;-143.29;100.00;62188.47;4898091;29;20075;-83
2023/04/26 03:20:42;;;;;;;5.38;1.25;;;;;;;-143.29;100.00;62188.47;4898117;29;20057;-83
2023/04/26 03:23:08;;;;;;;2.72;1.05;;;;;;;-143.29;100.00;62188.47;4898291;29;20031;-83
2023/04/26 03:25:33;;;;;;;8.88;2.08;;;;;;;-143.29;100.00;62188.47;4897291;29;20463;-83
2023/04/26 03:27:58;;;;;;;4.43;1.30;;;;;;;-143.29;100.00;62188.47;4897866;29;20594;-83
2023/04/26 03:30:24;;;;;;;2.72;1.05;;;;;;;-143.29;100.00;62188.47;4897947;29;20125;-83
2023/04/26 03:32:50;;;;;;;3.92;1.10;;;;;;;-143.29;100.00;62188.47;4897716;29;20076;-82
2023/04/26 03:35:15;;;;;;;7.28;2.10;;;;;;;-143.29;100.00;62188.47;4897034;29;20125;-82
2023/04/26 03:37:41;;;;;;;6.50;1.58;;;;;;;-143.29;100.00;62188.47;4897768;29;20403;-83
2023/04/26 03:40:08;;;;;;;4.32;1.30;;;;;;;-143.29;100.00;62188.47;4898060;29;20070;-82
2023/04/26 03:42:33;;;;;;;5.25;0.98;;;;;;;-143.29;100.00;62188.47;4897893;29;20029;-82
2023/04/26 03:44:58;;;;;;;8.00;1.77;;;;;;;-143.29;100.00;62188.47;4897160;29;20075;-83
2023/04/26 03:47:24;;;;;;;4.25;1.42;;;;;;;-143.29;100.00;62188.47;4895857;29;20037;-82
2023/04/26 03:49:49;;;;;;;3.60;1.23;;;;;;;-143.29;100.00;62188.47;4897670;29;20036;-82
2023/04/26 03:52:14;;;;;;;3.88;1.40;;;;;;;-143.29;100.00;62188.47;4897616;29;20112;-82
2023/04/26 03:54:40;;;;;;;4.60;1.20;;;;;;;-143.29;100.00;62188.47;4897776;29;20028;-82
2023/04/26 03:57:05;;;;;;;3.45;1.15;;;;;;;-143.29;100.00;62188.47;4896582;29;20025;-82
2023/04/26 03:59:31;;;;;;;5.63;1.20;;;;;;;-143.29;100.00;62188.47;4896266;29;20392;-82
2023/04/26 04:01:57;;;;;;;4.15;1.60;;;;;;;-143.29;100.00;62188.47;4896555;29;20044;-82
2023/04/26 04:04:22;;;;;;;4.22;1.38;;;;;;;-143.29;100.00;62188.47;4897298;29;20089;-83
2023/04/26 04:06:47;;;;;;;5.97;1.33;;;;;;;-143.29;100.00;62188.47;4897506;29;20040;-83
2023/04/26 04:09:13;;;;;;;5.00;1.40;;;;;;;-143.29;100.00;62188.47;4897502;29;20052;-83
2023/04/26 04:11:38;;;;;;;3.50;1.52;;;;;;;-143.29;100.00;62188.47;4904957;29;20066;-83
2023/04/26 04:14:03;;;;;;;2.92;1.15;;;;;;;-143.29;100.00;62188.47;4896293;29;20033;-82
2023/04/26 04:16:29;;;;;;;5.18;2.08;;;;;;;-143.29;100.00;62188.47;4896951;29;20063;-83
2023/04/26 04:18:54;;;;;;;2.60;1.15;;;;;;;-143.29;100.00;62188.47;4896998;29;20061;-83
2023/04/26 04:21:20;;;;;;;3.83;1.20;;;;;;;-143.29;100.00;62188.47;4896928;29;20028;-83
2023/04/26 04:23:45;;;;;;;2.85;1.20;;;;;;;-143.29;100.00;62188.47;4895971;29;20115;-82
2023/04/26 04:26:11;;;;;;;8.45;1.33;;;;;;;-143.29;100.00;62188.47;4897113;29;20024;-82
2023/04/26 04:28:38;;;;;;;3.58;1.38;;;;;;;-143.29;100.00;62188.47;4895635;29;20020;-83
2023/04/26 04:31:04;;;;;;;4.47;1.40;;;;;;;-143.29;100.00;62188.47;4897006;29;20494;-83
2023/04/26 04:33:29;;;;;;;4.60;1.27;;;;;;;-143.29;100.00;62188.47;4896110;29;20036;-83
2023/04/26 04:35:55;;;;;;;4.38;1.25;;;;;;;-143.29;100.00;62188.47;4896996;29;20130;-83
2023/04/26 04:38:20;;;;;;;4.93;1.20;;;;;;;-143.29;100.00;62188.47;4896986;29;20032;-83
2023/04/26 04:40:49;;;;;;;4.40;1.40;;;;;;;-143.29;100.00;62188.47;4896989;29;20055;-82
2023/04/26 04:43:15;;;;;;;2.85;1.23;;;;;;;-143.29;100.00;62188.47;4895977;29;20040;-82
2023/04/26 04:45:41;;;;;;;4.28;1.35;;;;;;;-143.29;100.00;62188.47;4896893;29;20028;-82
2023/04/26 04:48:08;;;;;;;3.65;1.30;;;;;;;-143.29;100.00;62188.47;4896718;29;20104;-82
2023/04/26 04:50:34;;;;;;;4.57;1.33;;;;;;;-143.29;100.00;62188.47;4896811;29;20021;-82
2023/04/26 04:53:00;;;;;;;3.80;1.35;;;;;;;-143.29;100.00;62188.47;4895969;29;20029;-82
2023/04/26 04:55:25;;;;;;;3.92;1.05;;;;;;;-143.29;100.00;62188.47;4896816;29;20035;-82
2023/04/26 04:57:50;;;;;;;4.75;1.35;;;;;;;-143.29;100.00;62188.47;4896786;29;20028;-82
2023/04/26 05:00:16;;;;;;;3.33;1.25;;;;;;;-143.29;100.00;62188.47;4899803;29;20044;-82
2023/04/26 05:02:42;;;;;;;2.38;1.10;;;;;;;-143.29;100.00;62188.47;4899729;29;20032;-82
2023/04/26 05:05:07;;;;;;;3.25;1.20;;;;;;;-143.29;100.00;62188.47;4900524;29;20096;-82
2023/04/26 05:07:33;;;;;;;4.97;1.65;;;;;;;-143.29;100.00;62188.47;4900525;29;20036;-82
2023/04/26 05:09:59;;;;;;;5.47;1.50;;;;;;;-143.29;100.00;62188.47;4900569;29;20032;-81
2023/04/26 05:12:25;;;;;;;3.78;1.58;;;;;;;-143.29;100.00;62188.47;4899199;29;20116;-81
2023/04/26 05:14:50;;;;;;;4.15;1.42;;;;;;;-143.29;100.00;62188.47;4900401;29;20116;-81
2023/04/26 05:17:15;;;;;;;3.38;1.17;;;;;;;-143.29;100.00;62188.47;4900573;29;20029;-81
2023/04/26 05:19:41;;;;;;;2.88;1.25;;;;;;;-143.29;100.00;62188.47;4899680;29;20483;-81
2023/04/26 05:22:06;;;;;;;4.82;1.48;;;;;;;-143.29;100.00;62188.47;4898101;29;20460;-81
2023/04/26 05:24:31;;;;;;;3.80;1.77;;;;;;;-143.29;100.00;62188.47;4900281;29;20244;-82
2023/04/26 05:26:58;;;;;;;3.75;1.20;;;;;;;-143.29;100.00;62188.47;4900215;29;20491;-81
2023/04/26 05:29:25;;;;;;;5.95;1.70;;;;;;;-143.29;100.00;62188.47;4900397;29;20060;-83
2023/04/26 05:31:50;;;;;;;5.18;1.55;;;;;;;-143.29;100.00;62188.47;4900158;29;20107;-83
2023/04/26 05:34:15;;;;;;;4.20;1.17;;;;;;;-143.29;100.00;62188.47;4899484;29;20472;-80
2023/04/26 05:36:41;;;;;;;3.92;1.38;;;;;;;-143.29;100.00;62188.47;4900235;29;20039;-79
2023/04/26 05:39:07;;;;;;;4.03;1.10;;;;;;;-143.29;100.00;62188.47;4899972;29;20028;-79
2023/04/26 05:41:32;;;;;;;3.65;1.70;;;;;;;-143.29;100.00;62188.47;4900026;29;20096;-79
2023/04/26 05:43:58;;;;;;;3.15;1.10;;;;;;;-143.29;100.00;62188.47;4897753;29;20036;-79
2023/04/26 05:46:23;;;;;;;9.55;1.88;;;;;;;-143.29;100.00;62188.47;4899955;29;20103;-80
2023/04/26 05:48:48;;;;;;;4.03;1.42;;;;;;;-143.29;100.00;62188.47;4900029;29;20031;-79
2023/04/26 05:51:14;;;;;;;6.93;1.38;;;;;;;-143.29;100.00;62188.47;4900005;29;20043;-79
2023/04/26 05:53:40;;;;;;;7.40;1.42;;;;;;;-143.29;100.00;62188.47;4913403;29;20037;-79
2023/04/26 05:56:06;;;;;;;10.15;1.75;;;;;;;-143.29;100.00;62188.47;4899655;29;20040;-78
2023/04/26 05:58:32;;;;;;;6.60;1.42;;;;;;;-143.29;100.00;62188.47;4898579;29;20020;-79
2023/04/26 06:00:58;;;;;;;4.85;1.50;;;;;;;-143.29;100.00;62188.47;4899486;29;20033;-78
2023/04/26 06:03:23;;;;;;;4.30;1.02;;;;;;;-143.29;100.00;62188.47;4899422;29;20036;-79
2023/04/26 06:05:48;;;;;;;5.13;1.17;;;;;;;-143.29;100.00;62188.47;4899599;29;20027;-79
2023/04/26 06:08:14;;;;;;;7.07;1.30;;;;;;;-143.29;100.00;62188.47;4898221;29;20523;-79
2023/04/26 06:10:39;;;;;;;4.28;1.23;;;;;;;-143.29;100.00;62188.47;4897290;29;20057;-79
2023/04/26 06:13:05;;;;;;;6.47;1.23;;;;;;;-143.29;100.00;62188.47;4915590;29;20031;-79
2023/04/26 06:15:30;;;;;;;3.50;1.30;;;;;;;-143.29;100.00;62188.47;4916930;29;20506;-79
2023/04/26 06:17:56;;;;;;;3.95;1.15;;;;;;;-143.29;100.00;62188.47;4909441;29;20513;-80
2023/04/26 06:20:21;;;;;;;4.10;0.95;;;;;;;-143.29;100.00;62188.47;4899457;29;20442;-84
2023/04/26 06:22:47;;;;;;;4.20;1.20;;;;;;;-143.29;100.00;62188.47;4912678;29;20374;-78
2023/04/26 06:25:12;;;;;;;3.30;1.02;;;;;;;-143.29;100.00;62188.47;4900931;29;20059;-78
2023/04/26 06:27:38;;;;;;;3.33;1.45;;;;;;;-143.29;100.00;62188.47;4898122;29;20031;-78
2023/04/26 06:30:05;;;;;;;5.15;1.30;;;;;;;-143.29;100.00;62188.47;4898719;29;20025;-78
2023/04/26 06:32:30;;;;;;;6.25;1.75;;;;;;;-143.29;100.00;62188.47;4910505;29;20423;-77
2023/04/26 06:34:55;;;;;;;5.35;1.50;;;;;;;-143.29;100.00;62188.47;4917795;29;20115;-78
2023/04/26 06:37:21;;;;;;;5.13;1.48;;;;;;;-143.29;100.00;62188.47;4914736;29;20119;-77
2023/04/26 06:39:46;;;;;;;5.85;2.25;;;;;;;-143.29;100.00;62188.47;4897557;29;20052;-78
2023/04/26 06:42:11;;;;;;;6.78;2.28;;;;;;;-143.29;100.00;62188.47;4908275;29;20032;-79
2023/04/26 06:44:37;;;;;;;10.20;3.90;;;;;;;-143.29;100.00;62188.47;4917601;29;20028;-78
2023/04/26 06:47:02;;;;;;;9.85;3.80;;;;;;;-143.29;100.00;62188.47;4917609;29;20044;-78
2023/04/26 06:49:27;;;;;;;10.75;4.25;;;;;;;-143.29;100.00;62188.47;4898178;29;20071;-77
2023/04/26 06:51:53;;;;;;;13.50;5.28;;;;;;;-143.29;100.00;62188.47;4897556;29;20112;-81
2023/04/26 06:54:18;;;;;;;13.80;4.80;;;;;;;-143.29;100.00;62188.47;4898655;29;20078;-81
2023/04/26 06:56:44;;;;;;;12.75;4.78;;;;;;;-143.29;100.00;62188.47;4898671;29;20416;-82
2023/04/26 06:59:10;;;;;;;9.93;4.32;;;;;;;-143.29;100.00;62188.47;4898446;29;20032;-83
2023/04/26 07:01:35;;;;;;;15.30;4.40;;;;;;;-143.29;100.00;62188.47;4902073;29;20024;-84
2023/04/26 07:04:06;;;;;;;8.50;3.00;;;;;;;-143.29;100.00;62188.47;4907379;29;20051;-85
2023/04/26 07:06:32;;;;;;;10.70;3.72;;;;;;;-143.29;100.00;62188.47;4897814;29;20032;-85
2023/04/26 07:08:58;;;;;;;13.25;4.30;;;;;;;-143.29;100.00;62188.47;4896591;29;20495;-85
2023/04/26 07:11:24;;;;;;;12.70;4.45;;;;;;;-143.29;100.00;62188.47;4900619;29;20269;-85
2023/04/26 07:13:49;;;;;;;10.48;4.25;;;;;;;-143.29;100.00;62188.47;4896505;29;20029;-85
2023/04/26 07:16:15;;;;;;;9.50;3.30;;;;;;;-143.29;100.00;62188.47;4897348;29;20423;-85
2023/04/26 07:18:40;;;;;;;9.73;4.05;;;;;;;-143.29;100.00;62188.47;4897612;29;20033;-85
2023/04/26 07:21:06;;;;;;;8.02;3.05;;;;;;;-143.29;100.00;62188.47;4897150;29;20029;-84
2023/04/26 07:23:31;;;;;;;12.50;3.70;;;;;;;-143.29;100.00;62188.47;4897463;29;20080;-82
2023/04/26 07:25:57;;;;;;;10.30;3.30;;;;;;;-143.29;100.00;62188.47;4896805;29;20044;-81
2023/04/26 07:28:22;;;;;;;8.75;2.97;;;;;;;-143.29;100.00;62188.47;4896984;29;20037;-82
2023/04/26 07:30:47;;;;;;;9.10;2.22;;;;;;;-143.29;100.00;62188.47;4897317;29;20032;-81
2023/04/26 07:33:13;;;;;;;9.52;2.72;;;;;;;-143.29;100.00;62188.47;4909566;29;20483;-81
2023/04/26 07:35:38;;;;;;;7.88;2.90;;;;;;;-143.29;100.00;62188.47;4896421;29;20385;-81
2023/04/26 07:38:03;;;;;;;10.15;2.45;;;;;;;-143.29;100.00;62188.47;4896009;29;20040;-82
2023/04/26 07:40:30;;;;;;;9.25;2.75;;;;;;;-143.29;100.00;62188.47;4895488;29;20032;-82
2023/04/26 07:42:55;;;;;;;8.30;3.03;;;;;;;-143.29;100.00;62188.47;4896383;29;20539;-82
2023/04/26 07:45:21;;;;;;;8.85;2.92;;;;;;;-143.29;100.00;62188.47;4896783;29;20040;-82
2023/04/26 07:47:46;;;;;;;6.72;2.33;;;;;;;-143.29;100.00;62188.47;4896432;29;20095;-82
2023/04/26 07:50:12;;;;;;;5.25;1.70;;;;;;;-143.29;100.00;62188.47;4897271;29;20523;-82
2023/04/26 07:52:38;;;;;;;4.35;1.63;;;;;;;-143.29;100.00;62188.47;4908237;29;20043;-81
2023/04/26 07:55:03;;;;;;;6.68;2.30;;;;;;;-143.29;100.00;62188.47;4895886;29;20029;-81
2023/04/26 07:57:29;;;;;;;4.13;2.15;;;;;;;-143.29;100.00;62188.47;4896975;29;20048;-82
2023/04/26 07:59:54;;;;;;;9.60;2.22;;;;;;;-143.29;100.00;62188.47;4896518;29;20032;-83
2023/04/26 08:02:20;;;;;;;6.85;2.53;;;;;;;-143.29;100.00;62188.47;4897162;29;20058;-83
2023/04/26 08:04:51;;;;;;;7.18;2.30;;;;;;;-143.29;100.00;62188.47;4897224;29;20039;-83
2023/04/26 08:07:16;;;;;;;8.38;2.05;;;;;;;-143.29;100.00;62188.47;4896182;29;20028;-83
2023/04/26 08:09:42;;;;;;;6.70;2.38;;;;;;;-143.29;100.00;62188.47;4897251;29;20038;-84
2023/04/26 08:12:07;;;;;;;8.68;2.47;;;;;;;-143.29;100.00;62188.47;4899166;29;20028;-85
2023/04/26 08:14:35;;;;;;;8.02;2.17;;;;;;;-143.29;100.00;62188.47;4893773;29;20084;-83
2023/04/26 08:17:01;;;;;;;4.18;2.22;;;;;;;-143.29;100.00;62188.47;4890698;29;20032;-85
2023/04/26 08:19:29;;;;;;;5.15;1.67;;;;;;;-143.29;100.00;62188.47;4896032;29;20033;-83
2023/04/26 08:21:55;;;;;;;5.45;1.52;;;;;;;-143.29;100.00;62188.47;4896360;29;20036;-84
2023/04/26 08:24:20;;;;;;;6.90;2.10;;;;;;;-143.29;100.00;62188.47;4896318;29;20050;-84
2023/04/26 08:26:46;;;;;;;5.28;1.77;;;;;;;-143.29;100.00;62188.47;4896212;29;20059;-86
2023/04/26 08:29:11;;;;;;;5.60;1.80;;;;;;;-143.29;100.00;62188.47;4893681;29;20513;-86
2023/04/26 08:31:36;;;;;;;4.90;1.55;;;;;;;-143.29;100.00;62188.47;4896809;29;20559;-87
2023/04/26 08:34:02;;;;;;;9.13;1.80;;;;;;;-143.29;100.00;62188.47;4894909;29;20495;-86
2023/04/26 08:36:27;;;;;;;5.18;1.85;;;;;;;-143.29;100.00;62188.47;4895519;29;20547;-87
2023/04/26 08:38:53;;;;;;;6.50;1.50;;;;;;;-143.29;100.00;62188.47;4896314;29;20033;-87
2023/04/26 08:41:22;;;;;;;5.60;2.00;;;;;;;-143.29;100.00;62188.47;4894741;29;20119;-87
2023/04/26 08:43:48;;;;;;;4.35;2.28;;;;;;;-143.29;100.00;62188.47;4877978;29;20384;-87
2023/04/26 08:46:17;;;;;;;5.32;1.63;;;;;;;-143.29;100.00;62188.47;4878050;29;20032;-87
2023/04/26 08:48:46;;;;;;;6.47;1.77;;;;;;;-143.29;100.00;62188.47;4878080;29;20029;-87
2023/04/26 08:51:13;;;;;;;4.55;1.20;;;;;;;-143.29;100.00;62188.47;4878683;29;20125;-87
2023/04/26 08:53:39;;;;;;;7.15;1.85;;;;;;;-143.29;100.00;62188.47;4896664;29;20056;-86
2023/04/26 08:56:06;;;;;;;6.43;1.60;;;;;;;-143.29;100.00;62188.47;4895539;29;20045;-87
2023/04/26 08:58:32;;;;;;;5.95;1.85;;;;;;;-143.29;100.00;62188.47;4896573;29;20353;-86
2023/04/26 09:00:58;;;;;;;5.75;1.80;;;;;;;-143.29;100.00;62188.47;4896646;29;20071;-85
2023/04/26 09:03:25;;;;;;;7.95;2.40;;;;;;;-143.29;100.00;62188.47;4896439;29;20061;-86
2023/04/26 09:05:51;;;;;;;6.45;2.03;;;;;;;-143.29;100.00;62188.47;4894427;29;20487;-87
2023/04/26 09:08:17;;;;;;;2.55;1.35;;;;;;;-143.29;100.00;62188.47;4895496;29;20052;-87
2023/04/26 09:10:43;;;;;;;8.55;1.92;;;;;;;-143.29;100.00;62188.47;4896275;29;20044;-86
2023/04/26 09:13:08;;;;;;;6.05;1.63;;;;;;;-143.29;100.00;62188.47;4896393;29;20025;-87
2023/04/26 09:15:34;;;;;;;5.00;1.50;;;;;;;-143.29;100.00;62188.47;4896405;29;20092;-88
2023/04/26 09:18:24;;;;;;;5.85;1.70;;;;;;;-143.29;100.00;62188.47;4896656;29;20032;-87
2023/04/26 09:21:18;;;;;;;6.63;1.70;;;;;;;-143.29;100.00;62188.47;4894747;29;20047;-86
2023/04/26 09:23:56;;;;;;;7.97;1.75;;;;;;;-143.29;100.00;62188.47;4888824;29;20482;-80
2023/04/26 09:26:22;;;;;;;5.68;1.65;;;;;;;-143.29;100.00;62188.47;4895976;29;20116;-81
2023/04/26 09:28:47;;;;;;;4.28;1.55;;;;;;;-143.29;100.00;62188.47;4896407;29;20108;-81
2023/04/26 09:31:37;;;;;;;5.38;1.77;;;;;;;-143.29;100.00;62188.47;4895700;29;20392;-82
2023/04/26 09:34:03;;;;;;;8.43;1.88;;;;;;;-143.29;100.00;62188.47;4896353;29;20563;-81
2023/04/26 09:36:28;;;;;;;6.68;1.83;;;;;;;-143.29;100.00;62188.47;4894520;29;20111;-81
2023/04/26 09:38:53;;;;;;;4.65;1.38;;;;;;;-143.29;100.00;62188.47;4896083;29;20111;-83
2023/04/26 09:41:19;;;;;;;6.40;1.40;;;;;;;-143.29;100.00;62188.47;4895922;29;20111;-82
2023/04/26 09:43:46;;;;;;;11.70;2.00;;;;;;;-143.29;100.00;62188.47;4895805;29;20033;-81
2023/04/26 09:46:22;;;;;;;5.22;1.42;;;;;;;-143.29;100.00;62188.47;4895546;29;20036;-82
2023/04/26 09:49:00;;;;;;;5.82;1.90;;;;;;;-143.29;100.00;62188.47;4896911;29;20072;-82
2023/04/26 09:51:25;;;;;;;6.68;1.80;;;;;;;-143.29;100.00;62188.47;4898047;29;20088;-82
2023/04/26 09:53:51;;;;;;;7.93;1.80;;;;;;;-143.29;100.00;62188.47;4898499;29;20051;-82
2023/04/26 09:56:18;;;;;;;6.13;1.88;;;;;;;-143.29;100.00;62188.47;4899055;29;20048;-83
2023/04/26 09:58:47;;;;;;;9.23;2.25;;;;;;;-143.29;100.00;62188.47;4903878;29;20021;-82
2023/04/26 10:01:17;;;;;;;9.93;2.30;;;;;;;-143.29;100.00;62188.47;4898937;29;20029;-82
2023/04/26 10:03:43;;;;;;;7.80;2.03;;;;;;;-143.29;100.00;62188.47;4918338;29;20116;-84
2023/04/26 10:06:11;;;;;;;14.57;2.42;;;;;;;-143.29;100.00;62188.47;4897700;29;20025;-80
2023/04/26 10:08:36;;;;;;;7.90;2.13;;;;;;;-143.29;100.00;62188.47;4899491;29;20025;-81
2023/04/26 10:11:06;;;;;;;10.60;2.15;;;;;;;-143.29;100.00;62188.47;4898204;29;20060;-81
2023/04/26 10:13:32;;;;;;;8.70;2.42;;;;;;;-143.29;100.00;62188.47;4899296;29;20029;-81
2023/04/26 10:15:59;;;;;;;22.25;2.85;;;;;;;-143.29;100.00;62188.47;4898006;29;20048;-81
2023/04/26 10:18:25;;;;;;;7.22;2.00;;;;;;;-143.29;100.00;62188.47;4899185;29;20064;-81
2023/04/26 10:20:53;;;;;;;9.73;2.10;;;;;;;-143.29;100.00;62188.47;4898346;29;20060;-81
2023/04/26 10:23:21;;;;;;;8.23;2.38;;;;;;;-143.29;100.00;62188.47;4916850;29;20110;-81
2023/04/26 10:25:48;;;;;;;10.35;3.50;;;;;;;-143.29;100.00;62188.47;4903501;29;20036;-80
2023/04/26 10:28:13;;;;;;;6.82;2.65;;;;;;;-143.29;100.00;62188.47;4899409;29;20543;-81
2023/04/26 10:30:58;;;;;;;7.70;2.72;;;;;;;-143.29;100.00;62188.47;4897991;29;20032;-81
2023/04/26 10:33:25;;;;;;;8.02;2.05;;;;;;;-143.29;100.00;62188.47;4907415;29;20037;-80
2023/04/26 10:36:00;;;;;;;10.52;2.25;;;;;;;-143.29;100.00;62188.47;4898177;29;20551;-81
2023/04/26 10:38:26;;;;;;;8.27;2.45;;;;;;;-143.29;100.00;62188.47;4898661;29;20145;-80
2023/04/26 10:40:51;;;;;;;11.00;1.98;;;;;;;-143.29;100.00;62188.47;4898939;29;20131;-80
2023/04/26 10:43:18;;;;;;;10.65;2.63;;;;;;;-143.29;100.00;62188.47;4909463;29;20037;-83
2023/04/26 10:45:47;;;;;;;11.95;2.47;;;;;;;-143.29;100.00;62188.47;4895822;29;20048;-82
2023/04/26 10:48:12;;;;;;;9.30;2.42;;;;;;;-143.29;100.00;62188.47;4892543;29;20047;-84
2023/04/26 10:51:17;;;;;;;20.15;2.55;;;;;;;-143.29;100.00;62188.47;4897686;29;20111;-84
2023/04/26 10:53:42;;;;;;;10.07;2.63;;;;;;;-143.29;100.00;62188.47;4898249;29;20053;-80
2023/04/26 10:56:08;;;;;;;15.00;2.63;;;;;;;-143.29;100.00;62188.47;4896260;29;20060;-82
2023/04/26 10:58:34;;;;;;;13.57;2.90;;;;;;;-143.29;100.00;62188.47;4898066;29;20025;-82
2023/04/26 11:01:19;;;;;;;23.58;3.00;;;;;;;-143.29;100.00;62188.47;4895785;29;20066;-82
2023/04/26 11:03:57;;;;;;;10.95;2.35;;;;;;;-143.29;100.00;62188.47;4887192;29;20036;-81
2023/04/26 11:06:26;;;;;;;10.77;2.75;;;;;;;-143.29;100.00;62188.47;4878874;29;20076;-80